Latest Weather Observations for Casterton

IDV60801

Issued at 7:32 am EST Thursday 17 August 2017 (issued every 30 minutes, with the page automatically refreshed every 10 minutes)

About weather observations | Map of weather stations | Latest weather observations for VIC | Other Formats
Station Details ID: 090182 Name: CASTERTON Lat: -37.58 Lon: 141.33 Height: 130.6 m
Data from the previous 72 hours. | See also: Recent months at Casterton
Date/Time
EST
Temp
°C
App
Temp
°C
Dew
Point
°C
Rel
Hum
%
Delta-T
°C
Wind Press
QNH
hPa
Press
MSL
hPa
Rain since
9am
mm
Dir  Spd
km/h
Gust
km/h
Spd
kts
Gust
kts
17/07:30am 7.8 4.4 7.7 99 0.0 NW 15 26 8 14 1001.9 1002.0 9.8
17/07:00am 8.3 4.8 7.4 94 0.4 W 15 20 8 11 1001.3 1001.4 7.8
17/06:30am 8.4 4.5 7.2 92 0.6 NW 17 26 9 14 1000.8 1000.9 7.8
17/06:00am 8.5 4.2 7.1 91 0.7 NNW 19 24 10 13 1000.6 1000.7 7.8
17/05:30am 8.8 3.6 7.1 89 0.8 NW 24 32 13 17 1000.7 1000.8 7.8
17/05:00am 9.5 5.7 8.9 96 0.3 NW 19 26 10 14 1000.5 1000.6 7.8
17/04:30am 9.3 6.2 9.0 98 0.1 NW 15 22 8 12 1000.8 1000.9 7.6
17/04:00am 8.9 6.1 8.5 97 0.2 NNW 13 17 7 9 1000.8 1000.9 7.6
17/03:30am 9.1 6.3 8.5 96 0.3 NW 13 20 7 11 1000.8 1000.9 7.6
17/03:00am 8.9 5.0 8.5 97 0.2 NW 19 26 10 14 1001.2 1001.3 7.6
17/02:30am 9.1 5.6 8.8 98 0.1 NW 17 26 9 14 1001.2 1001.3 7.6
17/02:00am 8.8 5.3 8.7 99 0.0 NW 17 24 9 13 1001.4 1001.5 7.6
17/01:30am 9.1 5.0 8.8 98 0.1 NW 20 28 11 15 1001.6 1001.7 7.6
17/01:00am 9.2 5.1 8.7 97 0.2 NW 20 30 11 16 1002.0 1002.2 7.6
17/12:30am 9.3 5.3 9.0 98 0.1 NW 20 32 11 17 1001.8 1001.9 7.6
17/12:00am 9.7 6.0 9.4 98 0.2 NW 19 30 10 16 1001.9 1002.0 7.6
 
Date/Time
EST
Temp
°C
App
Temp
°C
Dew
Point
°C
Rel
Hum
%
Delta-T
°C
Wind Press
QNH
hPa
Press
MSL
hPa
Rain since
9am
mm
Dir  Spd
km/h
Gust
km/h
Spd
kts
Gust
kts
16/11:30pm 9.6 5.8 9.1 97 0.2 NW 19 28 10 15 1002.0 1002.2 7.6
16/11:00pm 9.7 5.7 9.2 97 0.3 NW 20 32 11 17 1002.0 1002.2 7.6
16/10:30pm 9.4 4.6 8.9 97 0.2 WNW 24 35 13 19 1002.2 1002.4 7.6
16/10:00pm 10.0 5.3 9.2 95 0.4 WNW 24 33 13 18 1001.8 1001.9 4.8
16/09:30pm 10.2 5.1 9.1 93 0.5 NW 26 37 14 20 1001.6 1001.7 4.6
16/09:00pm 10.2 5.5 9.4 95 0.4 NNW 24 39 13 21 1001.6 1001.7 4.6
16/08:30pm 9.9 5.2 9.3 96 0.3 NW 24 33 13 18 1001.5 1001.6 4.6
16/08:14pm 10.6 4.4 9.5 93 0.6 NW 32 57 17 31 1001.7 1001.8 4.2
16/08:00pm 10.7 6.1 9.6 93 0.6 NW 24 37 13 20 1001.5 1001.6 3.8
16/07:30pm 10.6 6.9 10.0 96 0.3 NNW 20 32 11 17 1001.5 1001.6 3.8
16/07:00pm 10.0 6.6 9.2 95 0.4 NNW 17 24 9 13 1001.5 1001.6 3.4
16/06:30pm 10.0 6.7 9.4 96 0.3 NW 17 24 9 13 1001.5 1001.6 3.4
16/06:00pm 9.8 5.4 8.9 94 0.4 NW 22 32 12 17 1001.4 1001.5 3.2
16/05:30pm 10.5 5.4 9.1 91 0.7 NW 26 35 14 19 1001.3 1001.4 3.2
16/05:00pm 10.9 7.3 10.0 94 0.5 NW 19 32 10 17 1001.0 1001.1 3.2
16/04:30pm 10.7 6.1 9.5 92 0.6 W 24 33 13 18 1000.9 1001.0 3.0
16/04:00pm 12.4 5.8 8.7 78 1.9 NW 33 54 18 29 1000.3 1000.4 2.0
16/03:30pm 12.9 6.8 8.4 74 2.3 WNW 30 54 16 29 1000.2 1000.3 2.0
16/03:22pm 12.9 7.4 9.0 77 2.0 WNW 28 46 15 25 1000.2 1000.3 2.0
16/03:00pm 12.3 7.7 9.5 83 1.4 W 24 35 13 19 1000.2 1000.3 1.8
16/02:30pm 12.5 7.6 9.9 84 1.3 W 26 39 14 21 999.8 999.9 1.8
16/02:00pm 13.6 6.8 7.8 68 2.9 WNW 33 63 18 34 999.6 999.7 0.0
16/01:30pm 13.2 5.0 6.5 64 3.2 WNW 39 59 21 32 999.6 999.7 0.0
16/01:02pm 13.9 6.7 7.7 66 3.1 WNW 35 57 19 31 999.7 999.8 0.0
16/01:00pm 13.9 6.6 7.4 65 3.2 WNW 35 50 19 27 999.8 999.9 0.0
16/12:38pm 13.4 6.6 7.6 68 2.9 W 33 52 18 28 999.7 999.8 0.0
16/12:30pm 13.9 5.9 7.4 65 3.2 WNW 39 54 21 29 999.8 999.9 0.0
16/12:00pm 14.0 5.2 7.1 63 3.4 WNW 43 63 23 34 999.7 999.8 0.0
16/11:30am 13.2 6.2 7.0 66 3.0 WNW 33 63 18 34 999.7 999.8 0.0
16/11:14am 13.3 6.9 8.4 72 2.5 WNW 32 52 17 28 999.6 999.7 0.0
16/11:00am 12.6 6.1 8.1 74 2.2 WNW 32 48 17 26 999.6 999.7 0.0
16/10:30am 12.2 5.7 8.3 77 1.9 WNW 32 50 17 27 999.5 999.6 0.0
16/10:12am 12.5 6.1 8.6 77 2.0 WNW 32 50 17 27 999.4 999.5 0.0
16/10:00am 12.3 6.6 8.4 77 2.0 WNW 28 44 15 24 999.3 999.4 0.0
16/09:30am 11.9 6.1 8.0 77 1.9 WNW 28 48 15 26 999.1 999.2 0.0
16/09:24am 11.8 6.0 7.9 77 1.9 WNW 28 48 15 26 999.1 999.2 0.0
16/09:00am 11.0 5.6 7.9 81 1.5 WNW 26 37 14 20 998.7 998.8 9.2
16/08:30am 9.9 4.8 7.5 85 1.2 NW 24 33 13 18 998.7 998.8 9.2
16/08:00am 8.5 4.2 6.8 89 0.8 NW 19 26 10 14 998.3 998.4 9.0
16/07:30am 8.7 4.4 7.2 90 0.7 WNW 19 26 10 14 997.7 997.8 9.0
16/07:00am 8.4 5.4 7.5 94 0.4 WNW 13 20 7 11 997.3 997.4 9.0
16/06:30am 9.1 4.0 7.7 91 0.7 WNW 24 33 13 18 996.7 996.8 9.0
16/06:00am 9.2 2.9 7.3 88 0.9 WNW 30 48 16 26 996.1 996.2 9.0
16/05:30am 9.5 4.3 7.1 85 1.1 WNW 24 41 13 22 995.5 995.6 9.0
16/05:00am 9.8 3.9 7.6 86 1.1 WNW 28 39 15 21 995.2 995.3 9.0
16/04:30am 9.9 3.7 7.8 87 1.0 WNW 30 50 16 27 994.7 994.8 9.0
16/04:00am 10.1 3.5 8.7 91 0.7 WNW 33 52 18 28 994.0 994.1 9.0
16/03:30am 9.7 3.2 8.9 95 0.4 NW 33 56 18 30 993.4 993.5 9.0
16/03:24am 9.6 3.7 9.1 97 0.2 NW 30 50 16 27 993.5 993.6 9.0
16/03:00am 9.4 3.4 8.8 96 0.3 NW 30 39 16 21 993.3 993.4 8.8
16/02:30am 9.5 3.8 8.4 93 0.5 NW 28 46 15 25 993.9 994.0 8.8
16/02:24am 9.5 2.8 8.1 91 0.7 NW 33 52 18 28 994.0 994.1 8.8
16/02:00am 9.5 4.2 8.4 93 0.5 NW 26 43 14 23 994.3 994.4 8.6
16/01:30am 9.8 3.5 8.9 94 0.4 NW 32 57 17 31 994.5 994.6 8.6
16/01:29am 9.8 3.5 8.9 94 0.4 NW 32 57 17 31 994.5 994.6 8.6
16/01:00am 9.5 3.3 7.8 89 0.8 NW 30 44 16 24 994.5 994.6 8.2
16/12:30am 9.7 4.3 8.1 90 0.8 NW 26 35 14 19 994.8 994.9 8.2
16/12:00am 9.9 4.3 8.7 92 0.6 NW 28 43 15 23 995.1 995.2 8.2
 
Date/Time
EST
Temp
°C
App
Temp
°C
Dew
Point
°C
Rel
Hum
%
Delta-T
°C
Wind Press
QNH
hPa
Press
MSL
hPa
Rain since
9am
mm
Dir  Spd
km/h
Gust
km/h
Spd
kts
Gust
kts
15/11:34pm 10.8 5.4 9.6 92 0.6 WNW 28 48 15 26 995.6 995.8 8.2
15/11:30pm 10.6 6.0 9.7 94 0.5 WNW 24 37 13 20 995.6 995.8 8.2
15/11:00pm 10.7 5.8 10.1 96 0.3 NW 26 41 14 22 995.6 995.8 8.2
15/10:30pm 10.8 7.3 10.2 96 0.3 NW 19 30 10 16 996.0 996.1 7.8
15/10:00pm 10.5 6.7 9.7 95 0.4 NW 20 30 11 16 996.2 996.3 7.8
15/09:30pm 10.9 6.3 9.7 92 0.6 NW 24 33 13 18 996.7 996.8 7.8
15/09:13pm 11.1 4.2 8.7 85 1.2 WNW 35 59 19 32 996.8 996.9 7.8
15/09:04pm 11.3 6.2 10.5 95 0.4 WNW 28 61 15 33 997.7 997.8 7.6
15/09:00pm 11.8 8.3 11.0 95 0.4 NW 20 39 11 21 997.3 997.4 6.6
15/08:30pm 12.4 8.1 10.6 89 0.9 NNW 24 37 13 20 997.1 997.2 5.4
15/08:00pm 11.5 7.6 10.7 95 0.4 NW 22 35 12 19 997.4 997.5 5.4
15/07:39pm 11.3 5.3 10.0 92 0.7 WNW 32 56 17 30 997.4 997.5 5.4
15/07:30pm 11.2 4.2 10.0 92 0.6 WNW 37 59 20 32 997.7 997.8 5.2
15/07:25pm 12.3 6.3 10.7 90 0.8 WNW 33 59 18 32 997.7 997.8 4.2
15/07:00pm 13.4 8.7 12.0 91 0.8 NW 28 43 15 23 997.3 997.4 3.6
15/06:37pm 13.5 7.8 11.9 90 0.9 NW 33 54 18 29 997.1 997.2 3.6
15/06:30pm 13.6 8.9 12.0 90 0.9 NNW 28 43 15 23 997.0 997.1 3.6
15/06:00pm 13.6 8.2 12.3 92 0.7 NW 32 44 17 24 997.2 997.3 3.6
15/05:36pm 14.1 9.6 12.7 91 0.8 NW 28 46 15 25 997.1 997.2 3.6
15/05:30pm 14.1 9.7 13.0 93 0.6 NNW 28 41 15 22 997.0 997.1 3.6
15/05:00pm 14.1 10.1 13.0 93 0.6 NW 26 39 14 21 997.2 997.3 3.6
15/04:30pm 14.5 10.3 13.4 93 0.6 NW 28 41 15 22 997.3 997.4 3.6
15/04:00pm 14.8 11.0 13.5 92 0.7 NW 26 35 14 19 997.8 997.9 3.4
15/03:30pm 14.9 11.5 13.8 93 0.6 NW 24 33 13 18 998.4 998.5 3.4
15/03:00pm 15.0 11.7 14.0 94 0.6 NW 24 35 13 19 997.9 998.0 3.4
15/02:30pm 15.0 10.6 14.2 95 0.5 NW 30 54 16 29 998.6 998.7 3.4
15/02:21pm 14.8 10.4 14.0 95 0.5 NW 30 54 16 29 998.6 998.7 3.4
15/02:00pm 14.8 10.5 14.3 97 0.3 NW 30 44 16 24 999.0 999.1 3.4
15/01:30pm 14.7 10.4 14.4 98 0.2 NW 30 44 16 24 999.2 999.3 3.4
15/01:00pm 14.4 9.7 14.2 99 0.1 NW 32 48 17 26 999.5 999.6 3.4
15/12:30pm 14.4 10.4 14.2 99 0.1 NW 28 43 15 23 999.7 999.8 3.4
15/12:00pm 14.4 11.2 14.2 99 0.1 NW 24 44 13 24 1000.2 1000.3 3.4
15/11:44am 14.3 10.3 14.1 99 0.1 NW 28 48 15 26 1000.8 1000.9 3.0
15/11:30am 14.4 9.7 14.2 99 0.1 NW 32 46 17 25 1001.3 1001.4 2.2
15/11:00am 14.5 11.3 14.3 99 0.1 NNW 24 41 13 22 1000.5 1000.6 1.6
15/10:30am 14.8 10.9 14.5 98 0.2 NNW 28 44 15 24 1001.0 1001.1 0.2
15/10:11am 15.2 10.6 14.6 96 0.3 NW 32 52 17 28 1001.2 1001.3 0.0
15/10:00am 15.4 10.7 14.4 94 0.6 NNW 32 48 17 26 1001.0 1001.1 0.0
15/09:30am 15.0 10.1 14.4 96 0.3 NW 33 52 18 28 1001.6 1001.7 0.0
15/09:02am 14.6 10.3 14.4 99 0.1 NW 30 48 16 26 1002.1 1002.3 0.0
15/09:00am 14.6 9.9 14.4 99 0.1 NW 32 48 17 26 1002.0 1002.2 2.6
15/08:46am 14.4 10.0 14.2 99 0.1 NNW 30 48 16 26 1001.8 1001.9 2.6
15/08:30am 14.2 9.8 14.0 99 0.1 NNW 30 44 16 24 1001.6 1001.7 2.4
15/08:00am 13.6 9.7 13.4 99 0.1 NNW 26 43 14 23 1002.0 1002.2 1.4
15/07:47am 13.8 9.5 13.2 96 0.3 NNW 28 48 15 26 1002.2 1002.4 1.0
15/07:30am 13.7 10.7 12.6 93 0.6 NNW 20 32 11 17 1001.7 1001.8 0.8
15/07:00am 13.9 10.7 11.8 87 1.1 N 20 32 11 17 1002.2 1002.4 0.4
15/06:30am 13.4 10.8 12.0 91 0.8 N 17 24 9 13 1002.7 1002.9 0.4
15/06:00am 12.6 10.4 12.0 96 0.3 NNE 15 20 8 11 1001.9 1002.0 0.4
15/05:30am 12.3 10.7 11.7 96 0.3 NNE 11 15 6 8 1003.2 1003.4 0.4
15/05:00am 12.7 11.6 11.8 94 0.5 NNE 9 13 5 7 1003.7 1003.9 0.4
15/04:30am 13.0 10.0 11.9 93 0.6 N 19 28 10 15 1004.7 1004.8 0.4
15/04:00am 13.2 9.4 11.3 88 1.0 N 22 30 12 16 1004.5 1004.6 0.0
15/03:30am 13.0 9.9 10.4 84 1.4 N 17 24 9 13 1005.5 1005.6 0.0
15/03:00am 13.0 10.8 10.9 87 1.1 N 13 22 7 12 1005.6 1005.7 0.0
15/02:30am 10.3 9.2 10.1 99 0.1 NNE 6 11 3 6 1005.8 1005.9 0.0
15/02:00am 9.9 8.6 9.8 99 0.1 NNE 7 9 4 5 1006.8 1006.9 0.0
15/01:30am 9.6 8.4 9.5 99 0.1 NE 6 9 3 5 1007.3 1007.4 0.0
15/01:00am 8.7 7.1 8.6 99 0.0 NE 7 11 4 6 1007.7 1007.8 0.0
15/12:30am 8.8 7.4 8.7 99 0.0 NE 6 7 3 4 1008.7 1008.9 0.0
15/12:00am 8.3 6.6 8.2 99 0.0 NE 7 9 4 5 1008.9 1009.1 0.0
 
Date/Time
EST
Temp
°C
App
Temp
°C
Dew
Point
°C
Rel
Hum
%
Delta-T
°C
Wind Press
QNH
hPa
Press
MSL
hPa
Rain since
9am
mm
Dir  Spd
km/h
Gust
km/h
Spd
kts
Gust
kts
14/11:30pm 8.4 6.3 8.3 99 0.0 ENE 9 11 5 6 1009.4 1009.6 0.0
14/11:00pm 8.2 6.1 8.1 99 0.0 ENE 9 11 5 6 1010.0 1010.2 0.0
14/10:30pm 8.2 6.6 8.1 99 0.0 ENE 6 7 3 4 1010.4 1010.6 0.0
14/10:00pm 8.5 7.0 8.4 99 0.0 ENE 6 9 3 5 1011.1 1011.3 0.0
14/09:30pm 8.5 7.0 8.4 99 0.0 ENE 6 7 3 4 1011.6 1011.8 0.0
14/09:00pm 9.5 8.1 9.4 99 0.0 NE 7 9 4 5 1011.5 1011.7 0.0
14/08:30pm 9.7 8.5 9.6 99 0.1 ENE 6 7 3 4 1012.0 1012.1 0.0
14/08:00pm 10.1 10.2 10.0 99 0.1 CALM 0 0 0 0 1012.1 1012.2 0.0
14/07:30pm 10.1 10.0 9.6 97 0.3 CALM 0 0 0 0 1012.5 1012.6 0.0
14/07:00pm 11.7 12.0 10.8 94 0.5 CALM 0 0 0 0 1012.1 1012.2 0.0
14/06:30pm 12.4 12.2 10.6 89 0.9 N 2 6 1 3 1012.4 1012.5 0.0
14/06:00pm 13.6 12.7 10.8 83 1.5 N 6 7 3 4 1012.5 1012.6 0.0
14/05:30pm 16.0 15.2 11.8 76 2.3 NW 7 11 4 6 1012.4 1012.5 0.0
14/05:00pm 16.8 16.1 12.1 74 2.6 NW 7 11 4 6 1012.3 1012.4 0.0
14/04:30pm 17.5 16.4 12.0 70 3.0 W 9 13 5 7 1012.3 1012.4 0.0
14/04:00pm 17.2 14.7 11.2 68 3.3 WNW 15 20 8 11 1012.4 1012.5 0.0
14/03:30pm 17.4 15.4 11.4 68 3.3 W 13 20 7 11 1012.6 1012.7 0.0
14/03:00pm 17.7 16.5 12.8 73 2.8 W 11 17 6 9 1012.8 1012.9 0.0
14/02:30pm 17.5 15.8 12.6 73 2.7 W 13 19 7 10 1013.0 1013.1 0.0
14/02:00pm 17.6 16.4 12.9 74 2.6 W 11 20 6 11 1013.2 1013.3 0.0
14/01:30pm 16.6 14.9 12.6 77 2.2 SW 13 17 7 9 1013.4 1013.5 0.0
14/01:00pm 17.1 15.6 12.0 72 2.8 WNW 11 15 6 8 1013.6 1013.7 0.0
14/12:30pm 16.3 15.4 12.5 78 2.1 NW 9 17 5 9 1013.9 1014.0 0.0
14/12:00pm 16.4 15.3 13.1 81 1.9 NNW 11 15 6 8 1014.3 1014.4 0.0
14/11:30am 15.5 14.7 13.0 85 1.4 NW 9 11 5 6 1014.5 1014.6 0.0
14/11:00am 15.3 14.8 13.7 90 0.9 NNW 9 11 5 6 1014.7 1014.8 0.0
14/10:30am 14.3 13.6 13.2 93 0.6 NNW 9 13 5 7 1014.9 1015.1 0.0
14/10:00am 14.2 13.3 12.6 90 0.9 NNW 9 13 5 7 1015.1 1015.3 0.0
14/09:30am 13.1 12.2 11.3 89 1.0 N 7 11 4 6 1015.3 1015.5 0.0
14/09:00am 11.9 10.7 10.3 90 0.8 N 7 9 4 5 1015.2 1015.4 0.0
14/08:30am 10.0 9.4 9.1 94 0.4 NE 2 6 1 3 1015.2 1015.4 0.0
14/08:00am 8.5 8.0 7.7 95 0.4 CALM 0 0 0 0 1014.8 1014.9 0.0

Other Formats:

Comma delimited format used in spreadsheet applications
http://www.bom.gov.au/fwo/IDV60801/IDV60801.95825.axf

JavaScript Object Notation format (JSON) in row-major order
http://www.bom.gov.au/fwo/IDV60801/IDV60801.95825.json